Hazelton, Kansas
Current Conditions -  °F | °C
As of 12:50 PM on Thursday 30 Oct 2014 (Local Time) from KAVK Reporting Station
Clear Clear  
Wind Chill: 72°   Ceiling: Unl
Heat Index: 72°   Visibility: 10mi
Dew Point: 34°   Wind: 15mph
Humidity: 25%   Direction: 360°N
Pressure: 30.19"   Gusts: 21mph
Location:  37.09°N, 98.4°W
Report Text: KAVK 301750Z AUTO 36013G18KT 10SM CLR 22/01 A3019 RMK AO2
Loading
Personal Weather Stations






























Interactive Weather Map
Tropical Storm Tracking
New forecast layout! Learn more

10-Day Weather Forecast

Advertisements
Track Severe Weather on mobile